Terminal Aerodrome Forecast
Issued by NWS

Home | Current Version | Previous Version | Text Only | Print | Product List | Glossary On
Versions: 1 2 3 4 5 6 7 8 9 10 11 12 13 14
000
FTUS43 KGLD 240520
TAFMCK
TAF
KMCK 240520Z 2406/2506 34004KT P6SM SKC
     FM240900 02008KT P6SM SCT200
     FM241400 05009KT P6SM SCT200
     FM241700 06013G19KT P6SM SCT200
     FM250000 09012G17KT P6SM SCT200
     FM250200 08008KT P6SM SCT200=

USA.gov is the U.S. government's official web portal to all federal, state and local government web resources and services.